Time;durP1;ratioP1;P1;durP2;ratioP2;P2;SDS_P1;SDS_P2;PMS_P1;PMS_P2;Temp;Humidity;BMP_temperature;BMP_pressure;BME280_temperature;BME280_humidity;BME280_pressure;Samples;Min_cycle;Max_cycle;Signal;HPM_P1;HPM_P2
2023/07/26 00:02:23;;;;;;;16.10;9.93;;;13.70;99.90;;;;;;5028724;28;20194;-63
2023/07/26 00:04:49;;;;;;;13.10;9.23;;;13.70;99.90;;;;;;5028644;28;20215;-63
2023/07/26 00:07:14;;;;;;;14.10;9.77;;;13.70;99.90;;;;;;5029161;28;20181;-63
2023/07/26 00:09:40;;;;;;;12.20;9.37;;;13.70;99.90;;;;;;5028544;28;20212;-63
2023/07/26 00:12:06;;;;;;;14.23;10.60;;;13.70;99.90;;;;;;5029179;28;20247;-63
2023/07/26 00:14:31;;;;;;;17.80;11.17;;;13.70;99.90;;;;;;5029192;28;20184;-63
2023/07/26 00:16:57;;;;;;;17.33;10.80;;;13.80;99.90;;;;;;5029331;28;20522;-63
2023/07/26 00:19:23;;;;;;;16.53;10.70;;;13.70;99.90;;;;;;5029103;28;20185;-63
2023/07/26 00:21:49;;;;;;;12.97;10.80;;;13.70;99.90;;;;;;5029077;28;20216;-62
2023/07/26 00:24:15;;;;;;;14.43;11.20;;;13.70;99.90;;;;;;5029138;28;21048;-63
2023/07/26 00:26:41;;;;;;;15.37;10.40;;;13.70;99.90;;;;;;5029033;28;20422;-63
2023/07/26 00:29:06;;;;;;;14.60;10.17;;;13.70;99.90;;;;;;5029069;28;20188;-63
2023/07/26 00:31:32;;;;;;;17.30;11.57;;;13.70;99.90;;;;;;5029198;28;20220;-65
2023/07/26 00:33:57;;;;;;;11.27;9.10;;;13.70;99.90;;;;;;5029180;28;20203;-63
2023/07/26 00:36:23;;;;;;;12.40;10.70;;;13.70;99.90;;;;;;5029241;28;20187;-64
2023/07/26 00:38:48;;;;;;;13.80;10.73;;;13.70;99.90;;;;;;5029114;28;20559;-64
2023/07/26 00:41:14;;;;;;;14.03;10.60;;;13.70;99.90;;;;;;5028897;28;20698;-64
2023/07/26 00:43:40;;;;;;;17.10;12.17;;;13.70;99.90;;;;;;5029045;28;20216;-63
2023/07/26 00:46:06;;;;;;;21.87;12.13;;;13.70;99.90;;;;;;5029184;28;20184;-63
2023/07/26 00:48:34;;;;;;;22.93;12.80;;;13.70;99.90;;;;;;5027873;28;20193;-64
2023/07/26 00:51:01;;;;;;;17.30;12.30;;;13.70;99.90;;;;;;5027680;28;20923;-64
2023/07/26 00:53:27;;;;;;;19.10;12.10;;;13.80;99.90;;;;;;5027765;28;20428;-64
2023/07/26 00:55:53;;;;;;;17.50;11.53;;;13.70;99.90;;;;;;5029366;28;20954;-63
2023/07/26 00:58:20;;;;;;;16.23;12.27;;;13.70;99.90;;;;;;5033102;28;20930;-63
2023/07/26 01:00:46;;;;;;;17.13;11.53;;;13.70;99.90;;;;;;5033296;28;20434;-64
2023/07/26 01:03:13;;;;;;;14.20;11.30;;;13.70;99.90;;;;;;5033215;28;20502;-64
2023/07/26 01:06:07;;;;;;;17.97;11.43;;;13.70;99.90;;;;;;5033042;28;20407;-64
2023/07/26 01:08:53;;;;;;;17.43;10.57;;;13.60;99.90;;;;;;5030251;28;20954;-63
2023/07/26 01:11:28;;;;;;;16.77;12.50;;;13.70;99.90;;;;;;5032936;28;20466;-63
2023/07/26 01:13:58;;;;;;;21.60;12.70;;;13.70;99.90;;;;;;5033001;28;20849;-63
2023/07/26 01:16:24;;;;;;;16.20;11.00;;;13.60;99.90;;;;;;5033454;28;20416;-64
2023/07/26 01:18:50;;;;;;;16.13;11.10;;;13.60;99.90;;;;;;5033340;28;20424;-63
2023/07/26 01:21:15;;;;;;;19.23;12.20;;;13.70;99.90;;;;;;5033081;28;20808;-63
2023/07/26 01:23:41;;;;;;;19.37;11.50;;;13.60;99.90;;;;;;5032950;28;20658;-63
2023/07/26 01:26:06;;;;;;;12.07;10.00;;;13.60;99.90;;;;;;5032756;28;20271;-63
2023/07/26 01:28:32;;;;;;;11.37;10.10;;;13.60;99.90;;;;;;5032580;28;20226;-63
2023/07/26 01:31:04;;;;;;;17.80;11.00;;;13.60;99.90;;;;;;5032444;28;20593;-63
2023/07/26 01:33:31;;;;;;;13.90;11.00;;;13.60;99.90;;;;;;5032329;28;20900;-63
2023/07/26 01:35:59;;;;;;;15.83;10.53;;;13.60;99.90;;;;;;5032333;28;20422;-63
2023/07/26 01:38:25;;;;;;;14.97;11.83;;;13.60;99.90;;;;;;5032176;28;20412;-63
2023/07/26 01:40:51;;;;;;;22.00;11.73;;;13.60;99.90;;;;;;5032032;28;20442;-65
2023/07/26 01:43:17;;;;;;;14.27;11.50;;;13.60;99.90;;;;;;5031939;28;20430;-63
2023/07/26 01:45:43;;;;;;;18.03;11.20;;;13.60;99.90;;;;;;5031857;28;20412;-64
2023/07/26 01:48:08;;;;;;;15.43;11.53;;;13.60;99.90;;;;;;5031724;28;20268;-64
2023/07/26 01:50:34;;;;;;;14.30;11.63;;;13.50;99.90;;;;;;5031333;28;20224;-64
2023/07/26 01:52:59;;;;;;;17.90;11.47;;;13.50;99.90;;;;;;5031978;28;20279;-64
2023/07/26 01:55:25;;;;;;;11.40;9.20;;;13.50;99.90;;;;;;5031970;28;20176;-64
2023/07/26 01:57:51;;;;;;;15.17;11.07;;;13.60;99.90;;;;;;5031933;28;20184;-64
2023/07/26 02:00:16;;;;;;;15.33;9.03;;;13.50;99.90;;;;;;5031952;28;20208;-64
2023/07/26 02:02:42;;;;;;;17.93;9.53;;;13.40;99.90;;;;;;5032315;28;20188;-65
2023/07/26 02:05:08;;;;;;;11.27;9.57;;;13.40;99.90;;;;;;5032195;28;20188;-64
2023/07/26 02:07:33;;;;;;;11.00;8.50;;;13.30;99.90;;;;;;5031896;28;20241;-64
2023/07/26 02:09:59;;;;;;;15.07;7.93;;;13.30;99.90;;;;;;5032161;28;20679;-65
2023/07/26 02:12:24;;;;;;;12.73;8.70;;;13.30;99.90;;;;;;5032166;28;20339;-65
2023/07/26 02:14:50;;;;;;;17.23;7.70;;;13.30;99.90;;;;;;5032158;28;20538;-64
2023/07/26 02:17:16;;;;;;;9.60;7.97;;;13.20;99.90;;;;;;5032104;28;20185;-64
2023/07/26 02:19:41;;;;;;;10.10;7.60;;;13.10;99.90;;;;;;5031732;28;20231;-64
2023/07/26 02:22:07;;;;;;;11.10;7.10;;;13.10;99.90;;;;;;5031700;28;20180;-63
2023/07/26 02:24:34;;;;;;;14.67;7.90;;;13.00;99.90;;;;;;5031507;28;20238;-65
2023/07/26 02:26:59;;;;;;;11.40;6.43;;;13.00;99.90;;;;;;5031290;28;20189;-64
2023/07/26 02:29:25;;;;;;;13.57;6.60;;;13.00;99.90;;;;;;5030981;28;20423;-64
2023/07/26 02:31:50;;;;;;;11.63;7.50;;;13.00;99.90;;;;;;5030913;28;20242;-64
2023/07/26 02:34:16;;;;;;;12.23;7.37;;;13.00;99.90;;;;;;5030816;28;20195;-64
2023/07/26 02:36:42;;;;;;;7.73;6.80;;;13.00;99.90;;;;;;5030766;28;20184;-64
2023/07/26 02:39:07;;;;;;;10.73;7.20;;;13.00;99.90;;;;;;5030891;28;20606;-65
2023/07/26 02:41:33;;;;;;;11.17;6.60;;;12.90;99.90;;;;;;5030930;28;20209;-64
2023/07/26 02:43:59;;;;;;;7.77;6.60;;;13.00;99.90;;;;;;5030671;28;20659;-64
2023/07/26 02:46:24;;;;;;;7.30;6.10;;;13.00;99.90;;;;;;5030776;28;20271;-64
2023/07/26 02:48:50;;;;;;;12.63;6.43;;;13.00;99.90;;;;;;5030401;28;20212;-63
2023/07/26 02:51:15;;;;;;;12.70;6.77;;;12.90;99.90;;;;;;5030764;28;20707;-64
2023/07/26 02:53:41;;;;;;;8.30;6.80;;;12.90;99.90;;;;;;5028758;28;20268;-63
2023/07/26 02:56:06;;;;;;;15.73;7.57;;;12.90;99.90;;;;;;5030307;28;20214;-64
2023/07/26 02:58:32;;;;;;;10.00;6.30;;;12.80;99.90;;;;;;5029850;28;20238;-63
2023/07/26 03:00:58;;;;;;;9.47;6.57;;;13.00;99.90;;;;;;5029856;28;20197;-64
2023/07/26 03:03:23;;;;;;;11.80;6.40;;;13.00;99.90;;;;;;5029705;28;20213;-63
2023/07/26 03:05:49;;;;;;;7.60;6.77;;;12.90;99.90;;;;;;5029754;28;20722;-64
2023/07/26 03:08:14;;;;;;;11.57;7.23;;;12.90;99.90;;;;;;5029709;28;20196;-63
2023/07/26 03:10:40;;;;;;;13.53;7.17;;;12.90;99.90;;;;;;5029555;28;20609;-64
2023/07/26 03:13:05;;;;;;;8.93;5.60;;;12.90;99.90;;;;;;5029573;28;20574;-63
2023/07/26 03:15:31;;;;;;;8.60;6.50;;;12.90;99.90;;;;;;5029516;28;20221;-63
2023/07/26 03:17:57;;;;;;;9.30;6.83;;;12.90;99.90;;;;;;5029433;28;20201;-63
2023/07/26 03:20:22;;;;;;;8.13;5.97;;;12.90;99.90;;;;;;5028449;28;20224;-64
2023/07/26 03:22:48;;;;;;;13.83;6.23;;;12.80;99.90;;;;;;5029291;28;20199;-64
2023/07/26 03:25:13;;;;;;;7.97;6.40;;;12.90;99.90;;;;;;5029279;28;20211;-64
2023/07/26 03:27:39;;;;;;;10.83;5.60;;;12.80;99.90;;;;;;5029248;28;20279;-63
2023/07/26 03:30:05;;;;;;;4.97;4.33;;;12.70;99.90;;;;;;5029229;28;20211;-64
2023/07/26 03:32:31;;;;;;;6.90;5.60;;;12.70;99.90;;;;;;5029054;28;20247;-64
2023/07/26 03:34:56;;;;;;;8.80;5.13;;;12.70;99.90;;;;;;5029375;28;20970;-64
2023/07/26 03:37:22;;;;;;;4.47;3.93;;;12.70;99.90;;;;;;5029112;28;20192;-63
2023/07/26 03:39:47;;;;;;;7.07;5.10;;;12.80;99.90;;;;;;5028887;28;20205;-63
2023/07/26 03:42:13;;;;;;;6.00;5.20;;;12.70;99.90;;;;;;5028959;28;20197;-63
2023/07/26 03:44:39;;;;;;;8.07;4.07;;;12.80;99.90;;;;;;5029061;28;20242;-64
2023/07/26 03:47:04;;;;;;;5.83;3.43;;;12.70;99.90;;;;;;5029056;28;20196;-64
2023/07/26 03:49:30;;;;;;;8.03;4.67;;;12.60;99.90;;;;;;5028700;28;20204;-64
2023/07/26 03:51:56;;;;;;;6.90;4.23;;;12.70;99.90;;;;;;5028859;28;20933;-64
2023/07/26 03:54:21;;;;;;;9.20;4.70;;;12.60;99.90;;;;;;5029285;28;20214;-63
2023/07/26 03:56:47;;;;;;;6.90;4.60;;;12.70;99.90;;;;;;5028827;28;20189;-64
2023/07/26 03:59:12;;;;;;;8.47;4.10;;;12.60;99.90;;;;;;5028711;28;20276;-63
2023/07/26 04:01:38;;;;;;;7.67;4.87;;;12.70;99.90;;;;;;5028656;28;20208;-64
2023/07/26 04:04:03;;;;;;;5.57;4.80;;;12.70;99.90;;;;;;5028575;28;20285;-64
2023/07/26 04:06:29;;;;;;;6.73;4.37;;;12.70;99.90;;;;;;5028713;28;20193;-63
2023/07/26 04:08:55;;;;;;;9.37;5.00;;;12.80;99.90;;;;;;5028664;28;20206;-63
2023/07/26 04:11:21;;;;;;;5.60;5.10;;;12.80;99.90;;;;;;5028450;28;20223;-64
2023/07/26 04:13:46;;;;;;;5.20;4.70;;;12.80;99.90;;;;;;5028713;28;20533;-63
2023/07/26 04:16:17;;;;;;;6.43;4.57;;;12.90;99.90;;;;;;5028497;28;20275;-63
2023/07/26 04:18:43;;;;;;;6.30;4.70;;;12.80;99.90;;;;;;5027175;28;20195;-63
2023/07/26 04:21:15;;;;;;;5.33;4.83;;;12.80;99.90;;;;;;5027098;28;20474;-63
2023/07/26 04:23:42;;;;;;;4.23;3.83;;;12.80;99.90;;;;;;5026960;28;20422;-63
2023/07/26 04:26:09;;;;;;;8.63;4.67;;;12.80;99.90;;;;;;5026814;28;20922;-63
2023/07/26 04:28:34;;;;;;;5.13;3.90;;;12.90;99.90;;;;;;5026974;28;20935;-63
2023/07/26 04:31:00;;;;;;;4.53;3.70;;;12.90;99.90;;;;;;5026299;28;20454;-63
2023/07/26 04:33:26;;;;;;;4.57;4.13;;;12.90;99.90;;;;;;5026839;28;20652;-63
2023/07/26 04:35:51;;;;;;;6.00;3.90;;;12.90;99.90;;;;;;5026576;28;20659;-63
2023/07/26 04:38:20;;;;;;;4.83;3.90;;;12.90;99.90;;;;;;5026995;28;20188;-64
2023/07/26 04:40:47;;;;;;;5.60;3.80;;;12.90;99.90;;;;;;5026815;28;20208;-63
2023/07/26 04:43:22;;;;;;;4.60;3.80;;;12.90;99.90;;;;;;5027102;28;20423;-63
2023/07/26 04:45:51;;;;;;;5.73;4.70;;;12.90;99.90;;;;;;5026627;28;20429;-63
2023/07/26 04:48:18;;;;;;;8.47;5.07;;;12.90;99.90;;;;;;5026732;28;20423;-63
2023/07/26 04:50:45;;;;;;;5.27;4.77;;;12.90;99.90;;;;;;5026432;28;20520;-63
2023/07/26 04:53:11;;;;;;;8.73;4.53;;;13.00;99.90;;;;;;5026696;28;20490;-64
2023/07/26 04:55:46;;;;;;;7.53;4.43;;;13.00;99.90;;;;;;5026641;28;20925;-64
2023/07/26 04:58:12;;;;;;;5.23;4.07;;;13.00;99.90;;;;;;5026645;28;20194;-63
2023/07/26 05:00:39;;;;;;;8.27;3.97;;;13.10;99.90;;;;;;5026467;28;20474;-63
2023/07/26 05:03:05;;;;;;;3.40;3.10;;;13.10;99.90;;;;;;5026754;28;20424;-63
2023/07/26 05:05:32;;;;;;;3.50;3.20;;;13.10;99.90;;;;;;5026659;28;20427;-63
2023/07/26 05:07:58;;;;;;;4.37;3.50;;;13.10;99.90;;;;;;5025203;28;20766;-63
2023/07/26 05:10:25;;;;;;;8.00;3.67;;;13.10;99.90;;;;;;5026602;28;20443;-64
2023/07/26 05:12:51;;;;;;;5.63;4.63;;;13.10;99.90;;;;;;5026572;28;20220;-63
2023/07/26 05:15:17;;;;;;;6.00;4.50;;;13.20;99.90;;;;;;5026682;28;20427;-63
2023/07/26 05:17:46;;;;;;;4.77;4.37;;;13.20;99.90;;;;;;5026853;28;20445;-64
2023/07/26 05:20:12;;;;;;;5.60;5.00;;;13.20;99.90;;;;;;5026483;28;20449;-63
2023/07/26 05:22:38;;;;;;;6.13;5.50;;;13.30;99.90;;;;;;5026559;28;20848;-63
2023/07/26 05:25:04;;;;;;;7.27;5.37;;;13.30;99.90;;;;;;5026554;28;20423;-64
2023/07/26 05:27:29;;;;;;;6.13;5.27;;;13.30;99.90;;;;;;5026651;28;20561;-64
2023/07/26 05:29:57;;;;;;;7.63;5.30;;;13.30;99.90;;;;;;5026471;28;20475;-63
2023/07/26 05:32:23;;;;;;;9.40;5.73;;;13.30;99.90;;;;;;5026491;28;20235;-63
2023/07/26 05:34:48;;;;;;;9.43;5.83;;;13.30;99.90;;;;;;5026569;28;20489;-63
2023/07/26 05:37:14;;;;;;;10.87;6.30;;;13.30;99.90;;;;;;5026557;28;20984;-63
2023/07/26 05:39:40;;;;;;;13.50;5.97;;;13.40;99.90;;;;;;5026300;28;20205;-62
2023/07/26 05:42:05;;;;;;;7.30;6.57;;;13.40;99.90;;;;;;5026996;28;20199;-63
2023/07/26 05:44:31;;;;;;;10.70;5.93;;;13.30;99.90;;;;;;5029728;28;20192;-63
2023/07/26 05:46:58;;;;;;;9.47;5.70;;;13.40;99.90;;;;;;5030408;28;20199;-63
2023/07/26 05:49:24;;;;;;;6.03;5.43;;;13.30;99.90;;;;;;5030248;28;20265;-62
2023/07/26 05:51:49;;;;;;;15.47;7.17;;;13.40;99.90;;;;;;5030358;28;20462;-63
2023/07/26 05:54:15;;;;;;;9.37;5.97;;;13.40;99.90;;;;;;5030377;28;20213;-62
2023/07/26 05:56:41;;;;;;;6.37;5.10;;;13.40;99.90;;;;;;5030432;28;20927;-63
2023/07/26 05:59:06;;;;;;;16.10;5.70;;;13.40;99.90;;;;;;5030419;28;20180;-63
2023/07/26 06:01:32;;;;;;;10.50;4.97;;;13.50;99.90;;;;;;5030268;28;20212;-62
2023/07/26 06:03:57;;;;;;;8.60;5.80;;;13.50;99.90;;;;;;5029394;28;20251;-63
2023/07/26 06:06:23;;;;;;;9.00;5.50;;;13.50;99.90;;;;;;5030775;28;20208;-63
2023/07/26 06:08:49;;;;;;;6.07;5.10;;;13.60;99.90;;;;;;5030555;28;20719;-63
2023/07/26 06:11:14;;;;;;;6.00;5.40;;;13.60;99.90;;;;;;5030469;28;20208;-62
2023/07/26 06:13:40;;;;;;;6.93;4.83;;;13.60;99.90;;;;;;5030710;28;20191;-62
2023/07/26 06:16:09;;;;;;;7.60;5.47;;;13.60;99.90;;;;;;5030707;28;20313;-61
2023/07/26 06:18:34;;;;;;;7.03;5.13;;;13.60;99.90;;;;;;5030871;28;20231;-63
2023/07/26 06:21:00;;;;;;;9.20;5.43;;;13.70;99.90;;;;;;5030961;28;20478;-62
2023/07/26 06:23:25;;;;;;;5.37;4.50;;;13.70;99.90;;;;;;5030977;28;20189;-62
2023/07/26 06:25:51;;;;;;;11.17;5.90;;;13.70;99.90;;;;;;5030899;28;20192;-63
2023/07/26 06:28:16;;;;;;;12.90;5.10;;;13.70;99.90;;;;;;5030693;28;20575;-62
2023/07/26 06:30:42;;;;;;;8.73;5.73;;;13.70;99.90;;;;;;5030580;28;20293;-62
2023/07/26 06:33:07;;;;;;;11.20;5.33;;;13.70;99.90;;;;;;5031308;28;20184;-62
2023/07/26 06:35:33;;;;;;;5.60;5.07;;;13.80;99.90;;;;;;5030669;28;20690;-62
2023/07/26 06:37:59;;;;;;;4.67;4.27;;;13.80;99.90;;;;;;5030444;28;20188;-64
2023/07/26 06:40:24;;;;;;;8.80;4.87;;;13.80;99.90;;;;;;5030204;28;20201;-62
2023/07/26 06:42:50;;;;;;;5.47;4.40;;;13.90;99.90;;;;;;5030090;28;20193;-62
2023/07/26 06:45:15;;;;;;;4.83;4.43;;;13.80;99.90;;;;;;5030013;28;20204;-62
2023/07/26 06:47:41;;;;;;;6.43;4.20;;;13.90;99.90;;;;;;5030164;28;20188;-62
2023/07/26 06:50:07;;;;;;;5.60;4.23;;;14.10;99.90;;;;;;5029850;28;20699;-62
2023/07/26 06:52:33;;;;;;;9.70;4.43;;;14.10;99.90;;;;;;5029729;28;20259;-62
2023/07/26 06:54:58;;;;;;;7.50;5.03;;;14.10;99.90;;;;;;5029466;28;20819;-62
2023/07/26 06:57:24;;;;;;;10.43;4.40;;;14.10;99.90;;;;;;5029670;28;20221;-62
2023/07/26 06:59:49;;;;;;;7.73;4.60;;;14.20;99.90;;;;;;5029339;28;20205;-63
2023/07/26 07:02:15;;;;;;;8.47;4.40;;;14.20;99.90;;;;;;5029445;28;20213;-63
2023/07/26 07:04:41;;;;;;;10.43;5.10;;;14.40;99.90;;;;;;5029066;28;20787;-62
2023/07/26 07:07:06;;;;;;;9.00;3.87;;;14.60;99.90;;;;;;5028721;28;20198;-63
2023/07/26 07:09:32;;;;;;;10.17;4.10;;;14.90;99.90;;;;;;5028816;28;20227;-63
2023/07/26 07:11:58;;;;;;;8.83;4.70;;;15.00;99.90;;;;;;5029118;28;20871;-63
2023/07/26 07:14:23;;;;;;;6.53;3.60;;;15.10;99.90;;;;;;5029240;28;20209;-64
2023/07/26 07:16:49;;;;;;;6.73;4.03;;;15.10;99.90;;;;;;5029129;28;20692;-63
2023/07/26 07:19:15;;;;;;;9.07;4.50;;;15.20;99.90;;;;;;5028937;28;20604;-63
2023/07/26 07:21:41;;;;;;;5.97;4.17;;;15.20;99.90;;;;;;5028931;28;20864;-64
2023/07/26 07:24:07;;;;;;;6.80;4.13;;;15.30;99.90;;;;;;5028978;28;20204;-63
2023/07/26 07:26:33;;;;;;;5.10;3.50;;;15.50;99.90;;;;;;5029042;28;21119;-63
2023/07/26 07:28:58;;;;;;;6.90;4.20;;;15.80;99.90;;;;;;5029040;28;20196;-63
2023/07/26 07:31:24;;;;;;;5.70;3.57;;;15.90;99.90;;;;;;5028735;28;20225;-63
2023/07/26 07:33:49;;;;;;;7.60;3.90;;;15.90;99.90;;;;;;5028803;28;20273;-63
2023/07/26 07:36:18;;;;;;;7.67;5.33;;;15.80;99.90;;;;;;5028579;28;20594;-63
2023/07/26 07:38:47;;;;;;;6.80;4.47;;;15.70;99.90;;;;;;5028954;28;20611;-63
2023/07/26 07:41:13;;;;;;;11.43;5.10;;;15.60;99.90;;;;;;5028842;28;20448;-63
2023/07/26 07:43:39;;;;;;;8.63;4.27;;;15.70;99.90;;;;;;5028690;28;20431;-63
2023/07/26 07:46:05;;;;;;;5.30;3.77;;;15.60;99.90;;;;;;5028628;28;20428;-63
2023/07/26 07:48:31;;;;;;;5.50;4.70;;;15.60;99.90;;;;;;5028551;28;20285;-64
2023/07/26 07:50:57;;;;;;;7.67;4.30;;;15.60;99.90;;;;;;5028302;28;21150;-63
2023/07/26 07:53:26;;;;;;;8.63;4.47;;;15.50;99.90;;;;;;5028260;28;20523;-63
2023/07/26 07:55:52;;;;;;;4.90;3.73;;;15.40;99.90;;;;;;5026729;28;20455;-64
2023/07/26 07:58:17;;;;;;;6.10;3.87;;;15.40;99.90;;;;;;5027786;28;20514;-63
2023/07/26 08:00:43;;;;;;;5.80;4.30;;;15.30;99.90;;;;;;5028124;28;20468;-64
2023/07/26 08:03:09;;;;;;;6.90;4.57;;;15.30;99.90;;;;;;5028118;28;20208;-63
2023/07/26 08:05:35;;;;;;;9.03;4.80;;;15.30;99.90;;;;;;5027444;28;20190;-64
2023/07/26 08:08:01;;;;;;;7.47;4.27;;;15.30;99.90;;;;;;5028215;28;20671;-63
2023/07/26 08:10:27;;;;;;;5.27;4.77;;;15.20;99.90;;;;;;5027530;28;20449;-63
2023/07/26 08:12:52;;;;;;;7.70;4.90;;;15.20;99.90;;;;;;5027428;28;20872;-63
2023/07/26 08:15:18;;;;;;;7.00;4.20;;;15.00;99.90;;;;;;5027729;28;20644;-63
2023/07/26 08:17:44;;;;;;;6.33;4.57;;;15.00;99.90;;;;;;5027539;28;20271;-63
2023/07/26 08:20:10;;;;;;;8.43;4.70;;;15.00;99.90;;;;;;5027414;28;20209;-64
2023/07/26 08:22:36;;;;;;;10.20;4.70;;;15.00;99.90;;;;;;5027297;28;20193;-63
2023/07/26 08:25:02;;;;;;;6.67;4.47;;;14.80;99.90;;;;;;5027199;28;20439;-63
2023/07/26 08:27:29;;;;;;;8.63;5.30;;;14.70;99.90;;;;;;5026999;28;20652;-63
2023/07/26 08:29:55;;;;;;;10.30;6.03;;;14.50;99.90;;;;;;5027529;28;20518;-62
2023/07/26 08:32:20;;;;;;;6.20;5.60;;;14.40;99.90;;;;;;5027014;28;20533;-63
2023/07/26 08:34:46;;;;;;;6.07;5.50;;;14.20;99.90;;;;;;5027046;28;20192;-63
2023/07/26 08:37:11;;;;;;;15.33;6.03;;;14.10;99.90;;;;;;5027065;28;20192;-63
2023/07/26 08:39:37;;;;;;;6.47;4.53;;;14.00;99.90;;;;;;5026909;28;20723;-63
2023/07/26 08:42:03;;;;;;;8.17;4.93;;;13.80;99.90;;;;;;5026771;28;20310;-63
2023/07/26 08:44:31;;;;;;;7.20;4.40;;;13.70;99.90;;;;;;5027071;28;20202;-63
2023/07/26 08:46:59;;;;;;;8.80;4.90;;;13.80;99.90;;;;;;5026942;28;20581;-63
2023/07/26 08:49:25;;;;;;;6.20;4.83;;;13.70;99.90;;;;;;5026552;28;20808;-64
2023/07/26 08:51:51;;;;;;;5.20;3.50;;;13.80;99.90;;;;;;5026602;28;20474;-63
2023/07/26 08:54:17;;;;;;;7.60;4.63;;;13.80;99.90;;;;;;5026596;28;20275;-63
2023/07/26 08:56:43;;;;;;;10.27;3.87;;;13.70;99.90;;;;;;5026588;28;20971;-63
2023/07/26 08:59:09;;;;;;;10.10;4.80;;;13.70;99.90;;;;;;5026791;28;20471;-63
2023/07/26 09:01:35;;;;;;;5.90;3.30;;;13.60;99.90;;;;;;5026379;28;20453;-63
2023/07/26 09:04:00;;;;;;;4.43;2.33;;;13.50;99.90;;;;;;5026538;28;20258;-64
2023/07/26 09:06:26;;;;;;;3.03;2.17;;;13.40;99.90;;;;;;5026444;28;20427;-63
2023/07/26 09:08:52;;;;;;;2.60;2.20;;;13.20;99.90;;;;;;5026951;28;20189;-63
2023/07/26 09:11:26;;;;;;;4.70;2.13;;;13.00;99.90;;;;;;5026243;28;20232;-63
2023/07/26 09:13:57;;;;;;;5.53;2.73;;;12.80;99.90;;;;;;5026562;28;20423;-70
2023/07/26 09:16:27;;;;;;;7.03;2.90;;;12.80;99.90;;;;;;5026447;28;20899;-63
2023/07/26 09:19:00;;;;;;;7.17;3.27;;;12.70;99.90;;;;;;5029315;28;20416;-63
2023/07/26 09:21:34;;;;;;;4.73;3.67;;;12.70;99.90;;;;;;5030108;28;20457;-64
2023/07/26 09:24:03;;;;;;;4.37;3.20;;;12.80;99.90;;;;;;5030273;28;20423;-63
2023/07/26 09:26:37;;;;;;;3.47;3.13;;;12.80;99.90;;;;;;5030398;28;20775;-63
2023/07/26 09:29:16;;;;;;;2.80;2.20;;;12.80;99.90;;;;;;5030347;28;20419;-63
2023/07/26 09:31:43;;;;;;;5.33;2.67;;;12.70;99.90;;;;;;5030027;28;20463;-63
2023/07/26 09:34:13;;;;;;;3.10;2.13;;;12.80;99.90;;;;;;5030029;28;20430;-64
2023/07/26 09:36:46;;;;;;;3.43;2.03;;;12.80;99.90;;;;;;5030369;28;20434;-63
2023/07/26 09:39:13;;;;;;;2.50;2.20;;;12.90;99.90;;;;;;5030125;28;20415;-63
2023/07/26 09:41:39;;;;;;;4.70;2.27;;;12.90;99.90;;;;;;5029745;28;20450;-63
2023/07/26 09:44:06;;;;;;;3.10;2.27;;;13.00;99.90;;;;;;5029801;28;20520;-63
2023/07/26 09:46:53;;;;;;;2.60;2.17;;;12.90;99.90;;;;;;5029693;28;20446;-63
2023/07/26 09:49:21;;;;;;;2.93;2.63;;;12.80;99.90;;;;;;5029381;28;20443;-63
2023/07/26 09:51:48;;;;;;;2.83;2.40;;;12.80;99.90;;;;;;5029687;28;20474;-63
2023/07/26 09:54:14;;;;;;;2.53;1.87;;;12.70;99.90;;;;;;5029904;28;20427;-63
2023/07/26 09:56:43;;;;;;;4.37;2.43;;;12.70;99.90;;;;;;5029530;28;20431;-63
2023/07/26 09:59:11;;;;;;;5.00;2.83;;;12.60;99.90;;;;;;5029587;28;20415;-63
2023/07/26 10:01:43;;;;;;;3.27;2.60;;;12.40;99.90;;;;;;5029240;28;20450;-64
2023/07/26 10:04:22;;;;;;;2.43;2.30;;;12.60;99.90;;;;;;5029489;28;20435;-63
2023/07/26 10:06:49;;;;;;;2.03;1.90;;;12.70;99.90;;;;;;5029551;28;20437;-64
2023/07/26 10:09:16;;;;;;;5.93;1.97;;;12.80;99.90;;;;;;5029780;28;20847;-63
2023/07/26 10:11:46;;;;;;;3.00;2.33;;;12.80;99.90;;;;;;5029234;28;20525;-63
2023/07/26 10:14:12;;;;;;;2.03;1.80;;;13.30;99.90;;;;;;5029242;28;20427;-63
2023/07/26 10:16:39;;;;;;;1.83;1.50;;;13.90;99.90;;;;;;5029503;28;20426;-63
2023/07/26 10:19:06;;;;;;;6.50;1.80;;;14.00;99.90;;;;;;5029443;28;20423;-63
2023/07/26 10:21:34;;;;;;;1.83;1.20;;;14.50;99.90;;;;;;5029108;28;20435;-63
2023/07/26 10:24:02;;;;;;;1.30;1.20;;;15.10;99.90;;;;;;5029070;28;20434;-64
2023/07/26 10:26:32;;;;;;;1.20;1.10;;;15.60;99.90;;;;;;5029549;28;20417;-64
2023/07/26 10:29:02;;;;;;;1.27;1.17;;;16.50;99.90;;;;;;5028664;28;20829;-63
2023/07/26 10:31:31;;;;;;;3.43;1.10;;;17.20;99.90;;;;;;5028888;28;20468;-64
2023/07/26 10:33:58;;;;;;;2.03;1.40;;;17.80;99.90;;;;;;5029194;28;20415;-64
2023/07/26 10:36:32;;;;;;;1.00;0.80;;;18.40;99.90;;;;;;5028942;28;20427;-64
2023/07/26 10:39:04;;;;;;;1.80;1.10;;;18.10;99.90;;;;;;5027620;28;20441;-64
2023/07/26 10:41:29;;;;;;;4.10;1.13;;;17.60;99.90;;;;;;5029002;28;20537;-63
2023/07/26 10:44:09;;;;;;;1.27;1.13;;;17.00;99.90;;;;;;5029032;28;21009;-64
2023/07/26 10:46:54;;;;;;;1.87;1.77;;;16.60;99.90;;;;;;5028760;28;20202;-64
2023/07/26 10:49:26;;;;;;;5.17;1.87;;;16.10;99.90;;;;;;5028659;28;20515;-64
2023/07/26 10:51:52;;;;;;;3.00;1.80;;;15.70;99.90;;;;;;5029026;28;20918;-64
2023/07/26 10:54:37;;;;;;;1.50;1.40;;;15.40;99.90;;;;;;5028596;28;20436;-64
2023/07/26 10:57:31;;;;;;;1.67;1.47;;;15.00;99.90;;;;;;5028641;28;20441;-64
2023/07/26 11:00:06;;;;;;;1.77;1.67;;;14.70;99.90;;;;;;5027774;28;20536;-63
2023/07/26 11:02:48;;;;;;;2.13;1.93;;;14.70;99.90;;;;;;5028551;28;20424;-64
2023/07/26 11:05:16;;;;;;;1.73;1.53;;;14.70;99.90;;;;;;5028867;28;20408;-64
2023/07/26 11:07:52;;;;;;;2.20;1.20;;;14.70;99.90;;;;;;5028521;28;20427;-64
2023/07/26 11:10:20;;;;;;;1.60;1.30;;;14.70;99.90;;;;;;5028507;28;20498;-64
2023/07/26 11:12:49;;;;;;;1.97;1.60;;;14.60;99.90;;;;;;5028934;28;20523;-65
2023/07/26 11:15:25;;;;;;;1.77;1.30;;;14.80;99.90;;;;;;5028601;28;20413;-64
2023/07/26 11:17:53;;;;;;;1.83;1.53;;;15.00;99.90;;;;;;5028485;28;20420;-64
2023/07/26 11:20:18;;;;;;;2.00;1.90;;;15.00;99.90;;;;;;5028415;28;20453;-63
2023/07/26 11:22:44;;;;;;;2.17;1.70;;;15.10;99.90;;;;;;5028523;28;20441;-64
2023/07/26 11:25:11;;;;;;;3.53;2.10;;;15.10;99.90;;;;;;5028729;28;20190;-63
2023/07/26 11:27:37;;;;;;;2.20;2.00;;;15.30;99.90;;;;;;5028364;28;20197;-64
2023/07/26 11:30:19;;;;;;;2.77;1.93;;;15.50;99.90;;;;;;5028525;28;20471;-63
2023/07/26 11:32:45;;;;;;;7.23;2.00;;;15.70;99.90;;;;;;5028782;28;20482;-64
2023/07/26 11:35:10;;;;;;;3.73;1.77;;;15.80;99.90;;;;;;5029241;28;20421;-63
2023/07/26 11:37:36;;;;;;;2.60;1.50;;;16.00;99.90;;;;;;5029206;28;20192;-63
2023/07/26 11:40:12;;;;;;;4.77;1.93;;;16.20;99.90;;;;;;5028313;28;20755;-64
2023/07/26 11:42:38;;;;;;;5.63;2.03;;;16.30;99.90;;;;;;5029165;28;20186;-63
2023/07/26 11:45:05;;;;;;;2.60;1.80;;;16.30;99.90;;;;;;5028731;28;20799;-64
2023/07/26 11:47:35;;;;;;;2.30;1.40;;;16.60;99.90;;;;;;5028645;28;20635;-63
2023/07/26 11:50:04;;;;;;;2.13;1.73;;;16.60;99.90;;;;;;5028490;28;20515;-63
2023/07/26 11:52:30;;;;;;;1.87;1.77;;;16.80;99.90;;;;;;5028481;28;20985;-63
2023/07/26 11:55:01;;;;;;;3.73;2.23;;;17.20;99.90;;;;;;5028441;28;20430;-64
2023/07/26 11:57:27;;;;;;;3.20;1.90;;;17.50;99.90;;;;;;5028115;28;20423;-64
2023/07/26 12:00:01;;;;;;;2.90;2.13;;;17.90;99.90;;;;;;5027907;28;21005;-64
2023/07/26 12:02:27;;;;;;;2.33;1.63;;;17.80;99.90;;;;;;5028019;28;21004;-63
2023/07/26 12:05:18;;;;;;;2.33;1.60;;;17.40;99.90;;;;;;5028211;28;20448;-64
2023/07/26 12:07:52;;;;;;;2.33;1.70;;;17.30;99.90;;;;;;5028205;28;20518;-64
2023/07/26 12:10:26;;;;;;;3.63;2.13;;;17.40;99.90;;;;;;5027616;28;20449;-64
2023/07/26 12:12:52;;;;;;;3.30;1.80;;;17.50;99.90;;;;;;5027606;28;20978;-65
2023/07/26 12:15:17;;;;;;;4.87;1.50;;;17.90;99.90;;;;;;5027197;28;20450;-64
2023/07/26 12:17:56;;;;;;;2.87;1.60;;;18.10;99.90;;;;;;5027259;28;20645;-64
2023/07/26 12:20:23;;;;;;;3.80;2.00;;;18.40;99.90;;;;;;5027121;28;20608;-65
2023/07/26 12:22:53;;;;;;;1.77;1.67;;;18.70;99.90;;;;;;5027182;28;20430;-64
2023/07/26 12:25:21;;;;;;;2.17;1.53;;;18.80;99.90;;;;;;5027185;28;20425;-64
2023/07/26 12:27:52;;;;;;;2.30;1.73;;;19.20;99.90;;;;;;5027213;28;20421;-64
2023/07/26 12:30:19;;;;;;;1.60;1.50;;;19.30;99.90;;;;;;5027319;28;20453;-64
2023/07/26 12:32:44;;;;;;;3.00;1.50;;;19.40;99.90;;;;;;5027194;28;20476;-64
2023/07/26 12:35:24;;;;;;;1.63;1.53;;;19.70;99.90;;;;;;5027280;28;20460;-64
2023/07/26 12:37:50;;;;;;;2.33;1.40;;;19.80;99.90;;;;;;5027078;28;20599;-64
2023/07/26 12:40:18;;;;;;;2.80;1.07;;;19.90;99.90;;;;;;5026962;28;20811;-63
2023/07/26 12:42:43;;;;;;;1.63;1.23;;;19.70;99.90;;;;;;5027361;28;20203;-63
2023/07/26 12:45:09;;;;;;;5.43;1.40;;;20.10;99.90;;;;;;5025767;28;20430;-64